Terminal Aerodrome Forecast
Issued by NWS Dallas/Fort Worth, TX

Home | Current Version | Previous Version | Text Only | Print | Product List | Glossary On
Versions: 1 2 3 4 5 6 7 8 9 10 11 12 13 14 15 16 17 18 19 20 21 22 23 24 25
556
FTUS44 KFWD 200911 AAA
TAFDFW
TAF AMD
KDFW 200911Z 2009/2112 14008KT P6SM SCT150 BKN250
     FM201500 15014KT P6SM FEW025 SCT150 BKN250
     FM202000 15015KT P6SM VCSH BKN050
     FM210300 15013KT P6SM VCSH BKN015=

USA.gov is the U.S. government's official web portal to all federal, state and local government web resources and services.